Time;durP1;ratioP1;P1;durP2;ratioP2;P2;SDS_P1;SDS_P2;PMS_P1;PMS_P2;Temp;Humidity;BMP_temperature;BMP_pressure;BME280_temperature;BME280_humidity;BME280_pressure;Samples;Min_cycle;Max_cycle;Signal;HPM_P1;HPM_P2
2023/11/01 00:02:20;;;;;;;12.20;4.13;;;12.60;86.10;;;;;;5095240;28;20381;-73
2023/11/01 00:04:46;;;;;;;12.07;4.63;;;12.60;85.40;;;;;;5077402;28;20402;-72
2023/11/01 00:07:12;;;;;;;12.10;4.67;;;12.60;86.40;;;;;;5096667;28;20752;-72
2023/11/01 00:09:37;;;;;;;12.00;4.60;;;12.60;87.00;;;;;;5095561;28;20443;-72
2023/11/01 00:12:03;;;;;;;12.05;4.30;;;12.60;86.40;;;;;;5100888;28;20393;-73
2023/11/01 00:14:29;;;;;;;11.43;4.50;;;12.60;86.40;;;;;;5109065;28;20401;-73
2023/11/01 00:16:55;;;;;;;10.77;4.30;;;12.60;87.20;;;;;;5107633;28;20748;-73
2023/11/01 00:19:20;;;;;;;13.90;4.90;;;12.50;87.80;;;;;;5096969;28;20469;-71
2023/11/01 00:21:46;;;;;;;11.40;4.20;;;12.60;87.80;;;;;;5095755;28;20937;-74
2023/11/01 00:24:11;;;;;;;12.82;4.00;;;12.60;86.30;;;;;;5095879;28;20394;-71
2023/11/01 00:26:38;;;;;;;12.20;4.10;;;12.60;86.10;;;;;;5095613;28;20382;-71
2023/11/01 00:29:04;;;;;;;11.30;4.20;;;12.60;85.90;;;;;;5093923;28;20389;-72
2023/11/01 00:31:29;;;;;;;9.30;4.22;;;12.60;86.10;;;;;;5078052;28;20782;-70
2023/11/01 00:33:55;;;;;;;14.27;4.20;;;12.70;86.60;;;;;;5094726;28;20382;-73
2023/11/01 00:36:20;;;;;;;14.63;4.77;;;12.70;84.30;;;;;;5096244;28;20431;-73
2023/11/01 00:38:46;;;;;;;11.50;4.47;;;12.70;83.40;;;;;;5095851;28;20389;-72
2023/11/01 00:41:11;;;;;;;12.83;4.60;;;12.70;83.80;;;;;;5095371;28;20429;-71
2023/11/01 00:43:37;;;;;;;12.32;4.53;;;12.70;84.60;;;;;;5094050;28;20393;-72
2023/11/01 00:46:03;;;;;;;12.82;4.90;;;12.70;84.10;;;;;;5093584;28;20383;-72
2023/11/01 00:48:28;;;;;;;12.85;4.82;;;12.70;83.50;;;;;;5079319;28;20385;-72
2023/11/01 00:50:54;;;;;;;9.97;4.37;;;12.70;84.00;;;;;;5096340;28;20390;-71
2023/11/01 00:53:20;;;;;;;17.57;4.93;;;12.70;84.60;;;;;;5077666;28;20883;-73
2023/11/01 00:55:46;;;;;;;12.15;3.95;;;12.60;85.20;;;;;;5095236;28;20609;-73
2023/11/01 00:58:12;;;;;;;13.13;3.95;;;12.60;85.80;;;;;;5094317;28;20383;-72
2023/11/01 01:00:38;;;;;;;14.05;4.00;;;12.50;86.20;;;;;;5093420;28;20392;-73
2023/11/01 01:03:03;;;;;;;13.53;4.10;;;12.50;86.40;;;;;;5093920;28;20374;-72
2023/11/01 01:05:29;;;;;;;9.63;4.07;;;12.60;85.60;;;;;;5093673;28;20481;-72
2023/11/01 01:07:56;;;;;;;9.07;3.75;;;12.60;84.70;;;;;;5093943;28;20379;-72
2023/11/01 01:10:22;;;;;;;10.23;3.85;;;12.50;85.10;;;;;;5094382;28;20457;-71
2023/11/01 01:12:47;;;;;;;15.27;4.20;;;12.50;86.60;;;;;;5094539;28;20409;-72
2023/11/01 01:15:13;;;;;;;11.70;4.03;;;12.40;87.50;;;;;;5097059;28;20477;-72
2023/11/01 01:17:38;;;;;;;8.93;3.85;;;12.40;89.00;;;;;;5095298;28;20393;-72
2023/11/01 01:20:04;;;;;;;10.40;3.90;;;12.40;89.00;;;;;;5095305;28;20413;-72
2023/11/01 01:22:30;;;;;;;7.03;3.63;;;12.30;90.20;;;;;;5097184;28;20390;-72
2023/11/01 01:24:55;;;;;;;9.68;2.97;;;12.30;90.70;;;;;;5095223;28;20410;-71
2023/11/01 01:27:21;;;;;;;10.17;3.53;;;12.30;90.60;;;;;;5095825;28;20370;-72
2023/11/01 01:29:47;;;;;;;12.13;4.03;;;12.20;91.50;;;;;;5093316;28;20396;-72
2023/11/01 01:32:12;;;;;;;9.50;3.30;;;12.20;92.90;;;;;;5093305;28;20382;-74
2023/11/01 01:34:38;;;;;;;8.30;3.80;;;12.30;91.40;;;;;;5093228;28;20386;-72
2023/11/01 01:37:03;;;;;;;10.25;3.88;;;12.30;90.20;;;;;;5093428;28;20393;-72
2023/11/01 01:39:29;;;;;;;11.73;3.00;;;12.30;89.60;;;;;;5093551;28;20780;-73
2023/11/01 01:41:55;;;;;;;9.90;3.23;;;12.30;89.30;;;;;;5095743;28;21014;-73
2023/11/01 01:44:20;;;;;;;8.32;3.10;;;12.30;87.40;;;;;;5074529;28;20484;-72
2023/11/01 01:46:46;;;;;;;8.90;2.60;;;12.20;88.30;;;;;;5095947;28;20420;-73
2023/11/01 01:49:12;;;;;;;6.72;2.90;;;12.30;87.90;;;;;;5094725;28;20717;-72
2023/11/01 01:51:38;;;;;;;10.73;2.90;;;12.30;86.70;;;;;;5094103;28;20378;-73
2023/11/01 01:54:04;;;;;;;13.40;3.30;;;12.30;85.90;;;;;;5094328;28;20385;-71
2023/11/01 01:56:30;;;;;;;9.10;2.90;;;12.30;86.30;;;;;;5093307;28;20378;-74
2023/11/01 01:58:55;;;;;;;7.20;3.20;;;12.40;85.30;;;;;;5092730;28;20374;-72
2023/11/01 02:01:26;;;;;;;6.55;3.35;;;12.30;85.80;;;;;;5095088;28;20888;-73
2023/11/01 02:03:52;;;;;;;7.85;2.90;;;12.30;86.10;;;;;;5093304;28;20433;-73
2023/11/01 02:06:17;;;;;;;8.77;3.17;;;12.30;87.00;;;;;;5095615;28;20378;-73
2023/11/01 02:08:43;;;;;;;15.27;3.55;;;12.30;88.50;;;;;;5094216;28;20918;-73
2023/11/01 02:11:09;;;;;;;13.45;4.10;;;12.20;89.30;;;;;;5109212;28;20442;-74
2023/11/01 02:13:34;;;;;;;8.60;3.45;;;12.20;90.10;;;;;;5106904;28;20389;-73
2023/11/01 02:16:00;;;;;;;11.20;3.87;;;12.20;90.70;;;;;;5104361;28;20402;-72
2023/11/01 02:18:25;;;;;;;9.33;3.00;;;12.10;92.00;;;;;;5094895;28;20382;-73
2023/11/01 02:20:52;;;;;;;15.73;4.10;;;12.10;92.60;;;;;;5074802;28;20390;-73
2023/11/01 02:23:22;;;;;;;12.75;4.50;;;12.10;93.80;;;;;;5092611;28;20390;-73
2023/11/01 02:25:48;;;;;;;10.00;4.13;;;12.20;93.60;;;;;;5091080;28;20530;-73
2023/11/01 02:28:15;;;;;;;9.25;4.40;;;12.20;94.10;;;;;;5082262;28;20395;-72
2023/11/01 02:30:41;;;;;;;11.57;4.40;;;12.20;94.10;;;;;;5072043;28;20941;-72
2023/11/01 02:33:07;;;;;;;10.93;4.57;;;12.10;94.90;;;;;;5071373;28;20460;-70
2023/11/01 02:35:33;;;;;;;14.30;4.90;;;12.10;95.50;;;;;;5071714;28;20431;-70
2023/11/01 02:37:59;;;;;;;13.13;4.43;;;12.10;96.70;;;;;;5071041;28;20459;-69
2023/11/01 02:40:24;;;;;;;14.55;4.88;;;12.10;96.20;;;;;;5075335;28;20506;-73
2023/11/01 02:42:55;;;;;;;12.68;5.57;;;12.10;96.70;;;;;;5077255;28;20430;-72
2023/11/01 02:45:21;;;;;;;12.43;6.00;;;12.10;97.40;;;;;;5072589;28;20588;-73
2023/11/01 02:47:48;;;;;;;13.65;5.95;;;12.20;96.80;;;;;;5083526;28;20840;-73
2023/11/01 02:50:16;;;;;;;16.83;6.90;;;12.10;97.60;;;;;;5074070;28;20427;-74
2023/11/01 02:52:41;;;;;;;14.57;6.90;;;12.10;97.40;;;;;;5080527;28;20387;-72
2023/11/01 02:55:14;;;;;;;19.53;6.77;;;12.20;98.10;;;;;;5080753;28;20394;-73
2023/11/01 02:57:41;;;;;;;16.50;7.63;;;12.10;98.40;;;;;;5102220;28;20420;-73
2023/11/01 03:00:08;;;;;;;16.92;7.30;;;12.10;99.90;;;;;;5111293;28;20384;-72
2023/11/01 03:02:35;;;;;;;21.80;7.72;;;12.10;99.90;;;;;;5111334;28;20443;-72
2023/11/01 03:05:01;;;;;;;14.88;6.88;;;12.10;99.90;;;;;;5111234;28;20400;-73
2023/11/01 03:07:27;;;;;;;20.58;8.07;;;12.10;99.90;;;;;;5111186;28;20388;-73
2023/11/01 03:09:52;;;;;;;14.63;6.53;;;12.10;99.90;;;;;;5111481;28;20375;-72
2023/11/01 03:12:18;;;;;;;14.10;5.63;;;12.10;99.90;;;;;;5112969;28;20381;-73
2023/11/01 03:14:44;;;;;;;18.60;6.90;;;12.10;99.90;;;;;;5117071;28;20391;-73
2023/11/01 03:17:10;;;;;;;18.37;6.80;;;12.10;99.90;;;;;;5116468;28;20373;-73
2023/11/01 03:19:38;;;;;;;13.47;6.13;;;12.10;99.90;;;;;;5113009;28;20889;-73
2023/11/01 03:22:04;;;;;;;15.35;5.72;;;12.10;99.90;;;;;;5111251;28;20392;-74
2023/11/01 03:24:30;;;;;;;12.70;6.13;;;12.20;99.90;;;;;;5111104;28;20400;-71
2023/11/01 03:26:57;;;;;;;15.40;5.40;;;12.20;99.90;;;;;;5111064;28;20419;-72
2023/11/01 03:29:23;;;;;;;14.50;6.05;;;12.10;99.90;;;;;;5111885;28;20387;-73
2023/11/01 03:31:49;;;;;;;13.00;5.82;;;12.20;99.90;;;;;;5113232;28;20427;-72
2023/11/01 03:34:14;;;;;;;16.47;6.40;;;12.20;99.90;;;;;;5111697;28;20384;-72
2023/11/01 03:36:40;;;;;;;18.20;6.93;;;12.20;99.90;;;;;;5113085;28;20384;-73
2023/11/01 03:39:06;;;;;;;14.50;5.90;;;12.20;99.90;;;;;;5113857;28;20508;-72
2023/11/01 03:41:31;;;;;;;9.13;4.70;;;12.10;99.90;;;;;;5112381;28;20405;-73
2023/11/01 03:43:59;;;;;;;10.45;5.30;;;12.20;99.90;;;;;;5111340;28;20905;-72
2023/11/01 03:46:24;;;;;;;14.88;5.90;;;12.30;99.90;;;;;;5111341;28;20407;-72
2023/11/01 03:48:50;;;;;;;9.10;5.17;;;12.30;99.90;;;;;;5092823;28;20917;-73
2023/11/01 03:51:15;;;;;;;11.47;6.70;;;12.20;99.90;;;;;;5111630;28;20847;-74
2023/11/01 03:53:41;;;;;;;13.00;5.70;;;12.20;99.90;;;;;;5110895;28;20377;-72
2023/11/01 03:56:07;;;;;;;10.00;4.87;;;12.20;99.90;;;;;;5110697;28;20375;-72
2023/11/01 03:58:33;;;;;;;10.10;4.53;;;12.20;99.90;;;;;;5110958;28;20412;-72
2023/11/01 04:00:59;;;;;;;10.38;4.50;;;12.30;99.90;;;;;;5112339;28;20470;-73
2023/11/01 04:03:26;;;;;;;11.20;5.20;;;12.30;99.90;;;;;;5115122;28;20383;-73
2023/11/01 04:05:53;;;;;;;13.82;5.35;;;12.30;99.90;;;;;;5118411;28;20426;-73
2023/11/01 04:08:18;;;;;;;11.65;4.90;;;12.30;99.90;;;;;;5116329;28;20914;-73
2023/11/01 04:10:45;;;;;;;7.03;4.50;;;12.30;99.90;;;;;;5114395;28;20466;-73
2023/11/01 04:13:10;;;;;;;12.13;6.30;;;12.30;99.90;;;;;;5114537;28;20380;-74
2023/11/01 04:15:36;;;;;;;11.15;4.35;;;12.30;99.90;;;;;;5114343;28;20992;-73
2023/11/01 04:18:02;;;;;;;7.70;4.15;;;12.30;99.90;;;;;;5114636;28;20505;-72
2023/11/01 04:20:27;;;;;;;10.93;4.50;;;12.30;99.90;;;;;;5114353;28;20399;-72
2023/11/01 04:22:53;;;;;;;10.30;4.27;;;12.30;99.90;;;;;;5113991;28;20406;-73
2023/11/01 04:25:18;;;;;;;8.13;4.70;;;12.30;99.90;;;;;;5114027;28;20461;-74
2023/11/01 04:27:44;;;;;;;8.17;4.17;;;12.40;99.90;;;;;;5114109;28;20380;-73
2023/11/01 04:30:12;;;;;;;6.17;3.60;;;12.40;99.90;;;;;;5114406;28;20856;-73
2023/11/01 04:32:38;;;;;;;8.82;3.70;;;12.40;99.90;;;;;;5114080;28;20441;-74
2023/11/01 04:35:09;;;;;;;7.28;3.30;;;12.40;99.90;;;;;;5114483;28;20470;-73
2023/11/01 04:37:41;;;;;;;8.45;3.72;;;12.30;99.90;;;;;;5114066;28;20384;-74
2023/11/01 04:40:08;;;;;;;9.88;3.60;;;12.30;99.90;;;;;;5113718;28;20441;-74
2023/11/01 04:42:40;;;;;;;8.23;3.90;;;12.30;99.90;;;;;;5114004;28;20867;-74
2023/11/01 04:45:07;;;;;;;6.72;3.40;;;12.30;99.90;;;;;;5113889;28;20403;-74
2023/11/01 04:47:35;;;;;;;6.78;3.60;;;12.30;99.90;;;;;;5114524;28;20396;-73
2023/11/01 04:50:04;;;;;;;8.90;3.30;;;12.30;99.90;;;;;;5114333;28;20476;-73
2023/11/01 04:52:30;;;;;;;6.57;3.40;;;12.30;99.90;;;;;;5114097;28;20408;-74
2023/11/01 04:54:55;;;;;;;8.13;3.40;;;12.30;99.90;;;;;;5113727;28;20376;-73
2023/11/01 04:57:21;;;;;;;6.20;3.90;;;12.30;99.90;;;;;;5113862;28;20387;-74
2023/11/01 04:59:46;;;;;;;6.13;3.63;;;12.30;99.90;;;;;;5114343;28;20380;-72
2023/11/01 05:02:12;;;;;;;8.73;3.50;;;12.30;99.90;;;;;;5125469;28;20368;-73
2023/11/01 05:04:38;;;;;;;6.73;3.90;;;12.30;99.90;;;;;;5135408;28;20396;-73
2023/11/01 05:07:03;;;;;;;7.80;3.97;;;12.20;99.90;;;;;;5136961;28;20379;-73
2023/11/01 05:09:29;;;;;;;6.40;3.47;;;12.30;99.90;;;;;;5137492;27;20437;-75
2023/11/01 05:11:54;;;;;;;7.50;3.78;;;12.40;99.90;;;;;;5138153;28;20436;-73
2023/11/01 05:14:20;;;;;;;7.57;3.90;;;12.30;99.90;;;;;;5137969;28;20414;-75
2023/11/01 05:16:46;;;;;;;9.77;4.10;;;12.30;99.90;;;;;;5137874;28;20380;-74
2023/11/01 05:19:12;;;;;;;10.68;4.90;;;12.30;99.90;;;;;;5138123;27;20380;-74
2023/11/01 05:21:38;;;;;;;10.88;4.07;;;12.30;99.90;;;;;;5138644;28;20384;-75
2023/11/01 05:24:04;;;;;;;9.43;3.80;;;12.40;99.90;;;;;;5120457;28;20384;-73
2023/11/01 05:26:30;;;;;;;7.05;3.35;;;12.40;99.90;;;;;;5135991;28;20389;-74
2023/11/01 05:28:56;;;;;;;8.70;3.25;;;12.40;99.90;;;;;;5127360;28;20402;-73
2023/11/01 05:31:23;;;;;;;6.10;3.83;;;12.30;99.90;;;;;;5124701;28;20380;-73
2023/11/01 05:33:50;;;;;;;5.68;3.50;;;12.30;99.90;;;;;;5120890;28;20372;-73
2023/11/01 05:36:15;;;;;;;7.20;3.70;;;12.30;99.90;;;;;;5126480;28;20384;-72
2023/11/01 05:38:42;;;;;;;7.80;3.57;;;12.40;99.90;;;;;;5125517;28;20942;-73
2023/11/01 05:41:10;;;;;;;7.07;4.35;;;12.40;99.90;;;;;;5120870;28;20636;-72
2023/11/01 05:43:39;;;;;;;9.75;4.30;;;12.30;99.90;;;;;;5114286;28;20380;-73
2023/11/01 05:46:05;;;;;;;7.93;4.05;;;12.30;99.90;;;;;;5113776;28;20392;-72
2023/11/01 05:48:32;;;;;;;6.20;3.92;;;12.40;99.90;;;;;;5121912;28;20459;-74
2023/11/01 05:50:59;;;;;;;6.75;3.75;;;12.40;99.90;;;;;;5126219;28;20415;-73
2023/11/01 05:53:24;;;;;;;6.03;3.70;;;12.40;99.90;;;;;;5095518;28;20904;-72
2023/11/01 05:55:50;;;;;;;9.40;4.03;;;12.40;99.90;;;;;;5112367;28;20465;-72
2023/11/01 05:58:16;;;;;;;6.57;3.80;;;12.40;99.90;;;;;;5112505;28;20388;-72
2023/11/01 06:00:42;;;;;;;6.93;3.20;;;12.40;99.90;;;;;;5112239;28;20379;-72
2023/11/01 06:03:08;;;;;;;12.30;3.80;;;12.40;99.90;;;;;;5112222;28;20757;-73
2023/11/01 06:05:35;;;;;;;10.32;3.85;;;12.40;99.90;;;;;;5111947;28;20384;-73
2023/11/01 06:08:03;;;;;;;5.63;3.80;;;12.40;99.90;;;;;;5112365;28;20390;-71
2023/11/01 06:10:29;;;;;;;7.25;3.30;;;12.30;99.90;;;;;;5112283;28;20464;-71
2023/11/01 06:12:55;;;;;;;9.55;3.30;;;12.30;99.90;;;;;;5113094;28;20854;-73
2023/11/01 06:15:20;;;;;;;9.85;3.50;;;12.20;99.90;;;;;;5097260;28;20384;-72
2023/11/01 06:17:47;;;;;;;9.65;3.92;;;12.20;99.90;;;;;;5115587;28;20376;-72
2023/11/01 06:20:13;;;;;;;10.83;3.70;;;12.20;99.90;;;;;;5114818;28;20387;-72
2023/11/01 06:22:39;;;;;;;10.07;3.43;;;12.20;99.90;;;;;;5115417;28;20376;-73
2023/11/01 06:25:08;;;;;;;8.10;3.25;;;12.10;99.90;;;;;;5112524;28;20400;-73
2023/11/01 06:27:34;;;;;;;9.37;3.07;;;12.00;99.90;;;;;;5111785;28;20423;-72
2023/11/01 06:30:00;;;;;;;7.55;3.22;;;12.10;99.90;;;;;;5112371;28;20437;-71
2023/11/01 06:32:25;;;;;;;7.60;3.40;;;12.10;99.90;;;;;;5111769;28;20379;-72
2023/11/01 06:34:51;;;;;;;9.90;3.00;;;12.00;99.90;;;;;;5112830;28;20415;-73
2023/11/01 06:37:16;;;;;;;10.73;3.20;;;12.10;99.90;;;;;;5112035;28;20390;-73
2023/11/01 06:39:42;;;;;;;9.20;3.88;;;12.00;99.90;;;;;;5111797;28;20758;-72
2023/11/01 06:42:07;;;;;;;9.20;3.10;;;12.00;99.90;;;;;;5112498;28;20915;-71
2023/11/01 06:44:33;;;;;;;7.23;3.47;;;12.00;99.90;;;;;;5111548;28;20396;-72
2023/11/01 06:46:58;;;;;;;7.13;3.50;;;12.00;99.90;;;;;;5111669;28;20380;-74
2023/11/01 06:49:24;;;;;;;9.47;3.70;;;12.00;99.90;;;;;;5111921;28;20895;-72
2023/11/01 06:51:49;;;;;;;10.83;3.60;;;12.00;99.90;;;;;;5112248;28;20376;-72
2023/11/01 06:54:15;;;;;;;5.50;3.25;;;12.00;99.90;;;;;;5112310;28;20463;-72
2023/11/01 06:56:44;;;;;;;16.05;3.60;;;12.10;99.90;;;;;;5112513;28;20389;-71
2023/11/01 06:59:13;;;;;;;11.07;3.37;;;12.10;99.90;;;;;;5111825;28;20743;-72
2023/11/01 07:01:39;;;;;;;8.90;3.50;;;12.00;99.90;;;;;;5093984;28;20380;-72
2023/11/01 07:04:05;;;;;;;6.20;3.00;;;12.10;99.90;;;;;;5112029;28;20870;-74
2023/11/01 07:06:30;;;;;;;8.90;3.80;;;12.10;99.90;;;;;;5112040;28;20429;-72
2023/11/01 07:08:56;;;;;;;9.02;2.90;;;12.10;99.90;;;;;;5111696;28;20754;-73
2023/11/01 07:11:24;;;;;;;13.13;3.43;;;12.20;99.90;;;;;;5114340;28;20866;-73
2023/11/01 07:13:49;;;;;;;8.23;3.20;;;12.20;99.90;;;;;;5111463;28;20422;-73
2023/11/01 07:16:15;;;;;;;16.67;3.80;;;12.30;99.90;;;;;;5111171;28;20419;-73
2023/11/01 07:18:40;;;;;;;11.05;3.15;;;12.40;99.90;;;;;;5111535;28;20832;-72
2023/11/01 07:21:09;;;;;;;12.88;3.30;;;12.50;99.90;;;;;;5111310;28;20384;-72
2023/11/01 07:23:35;;;;;;;11.93;3.50;;;12.60;99.90;;;;;;5112206;28;20392;-71
2023/11/01 07:26:01;;;;;;;14.10;3.40;;;12.60;99.90;;;;;;5111007;28;20487;-71
2023/11/01 07:28:27;;;;;;;11.53;3.50;;;12.70;99.90;;;;;;5111158;28;20747;-72
2023/11/01 07:30:53;;;;;;;8.10;3.30;;;12.70;99.90;;;;;;5111268;28;20384;-72
2023/11/01 07:33:18;;;;;;;9.87;3.07;;;12.80;99.90;;;;;;5111118;28;20475;-72
2023/11/01 07:35:44;;;;;;;8.23;3.60;;;12.90;99.90;;;;;;5111331;28;20380;-71
2023/11/01 07:38:09;;;;;;;9.33;3.33;;;12.90;99.60;;;;;;5111136;28;20491;-72
2023/11/01 07:40:35;;;;;;;8.20;3.10;;;13.00;99.20;;;;;;5115514;28;20479;-73
2023/11/01 07:43:01;;;;;;;9.15;3.63;;;13.00;97.70;;;;;;5116346;28;20759;-73
2023/11/01 07:45:27;;;;;;;8.43;3.10;;;13.10;97.10;;;;;;5117369;28;20419;-73
2023/11/01 07:47:53;;;;;;;5.07;2.90;;;13.10;94.90;;;;;;5116635;28;20384;-74
2023/11/01 07:50:19;;;;;;;7.93;3.07;;;13.10;94.90;;;;;;5116701;28;20471;-72
2023/11/01 07:52:44;;;;;;;4.50;2.80;;;13.20;93.50;;;;;;5115912;28;20376;-73
2023/11/01 07:55:13;;;;;;;8.15;3.05;;;13.20;92.40;;;;;;5115499;28;20384;-73
2023/11/01 07:57:38;;;;;;;3.88;3.10;;;13.20;92.50;;;;;;5096516;28;20391;-72
2023/11/01 08:00:06;;;;;;;6.00;2.90;;;13.20;92.30;;;;;;5114745;28;20487;-73
2023/11/01 08:02:32;;;;;;;7.05;3.10;;;13.30;92.80;;;;;;5114888;28;20422;-72
2023/11/01 08:04:58;;;;;;;6.30;3.40;;;13.30;92.10;;;;;;5114848;28;20766;-73
2023/11/01 08:07:25;;;;;;;6.03;3.47;;;13.30;91.80;;;;;;5114909;28;20368;-72
2023/11/01 08:09:51;;;;;;;5.70;3.20;;;13.50;90.30;;;;;;5114619;28;20380;-72
2023/11/01 08:12:17;;;;;;;5.68;2.80;;;13.60;87.40;;;;;;5114525;28;20372;-74
2023/11/01 08:14:43;;;;;;;12.70;3.00;;;13.60;87.40;;;;;;5114507;28;20436;-73
2023/11/01 08:17:09;;;;;;;7.10;2.90;;;13.60;87.00;;;;;;5114926;28;20473;-72
2023/11/01 08:19:35;;;;;;;10.70;3.10;;;13.60;86.30;;;;;;5115029;28;20871;-71
2023/11/01 08:22:01;;;;;;;10.48;3.00;;;13.70;86.90;;;;;;5114583;28;20844;-73
2023/11/01 08:24:27;;;;;;;11.98;3.65;;;13.90;84.30;;;;;;5114249;28;20541;-72
2023/11/01 08:26:53;;;;;;;5.50;3.17;;;13.90;85.60;;;;;;5114346;28;20381;-73
2023/11/01 08:29:18;;;;;;;4.57;3.20;;;14.00;83.00;;;;;;5114186;28;20384;-73
2023/11/01 08:31:44;;;;;;;6.30;3.10;;;14.20;79.90;;;;;;5114618;28;20377;-72
2023/11/01 08:34:09;;;;;;;11.50;3.20;;;14.30;78.40;;;;;;5114028;28;20369;-73
2023/11/01 08:36:35;;;;;;;8.20;3.10;;;14.40;77.60;;;;;;5114483;28;20422;-73
2023/11/01 08:39:00;;;;;;;8.30;3.00;;;14.40;75.70;;;;;;5114495;28;20373;-73
2023/11/01 08:41:26;;;;;;;6.70;3.07;;;14.60;75.60;;;;;;5114348;28;20471;-73
2023/11/01 08:43:53;;;;;;;10.65;3.25;;;14.70;74.60;;;;;;5114531;28;20887;-73
2023/11/01 08:46:19;;;;;;;6.60;3.10;;;14.80;70.90;;;;;;5114146;28;20403;-73
2023/11/01 08:48:44;;;;;;;5.30;3.00;;;14.90;69.10;;;;;;5114174;28;20404;-72
2023/11/01 08:51:10;;;;;;;5.90;3.40;;;15.10;68.70;;;;;;5113592;28;20413;-73
2023/11/01 08:53:39;;;;;;;9.35;3.10;;;15.20;65.90;;;;;;5114530;28;20404;-73
2023/11/01 08:56:05;;;;;;;11.13;3.95;;;15.20;65.60;;;;;;5113667;28;20383;-73
2023/11/01 08:58:31;;;;;;;7.13;2.77;;;15.20;66.00;;;;;;5115281;28;20780;-73
2023/11/01 09:00:57;;;;;;;11.80;3.00;;;15.10;67.30;;;;;;5114493;28;20379;-72
2023/11/01 09:03:25;;;;;;;9.00;6.45;;;15.10;68.70;;;;;;5116066;28;20383;-74
2023/11/01 09:05:54;;;;;;;9.30;2.70;;;15.00;68.50;;;;;;5119109;28;20398;-74
2023/11/01 09:08:20;;;;;;;11.70;3.17;;;15.00;68.10;;;;;;5116649;28;20466;-73
2023/11/01 09:10:46;;;;;;;10.17;3.00;;;15.00;67.50;;;;;;5120497;28;20386;-73
2023/11/01 09:13:12;;;;;;;10.50;2.77;;;15.00;64.70;;;;;;5108259;28;20402;-73
2023/11/01 09:15:38;;;;;;;9.73;3.13;;;15.10;63.70;;;;;;5122183;28;20392;-73
2023/11/01 09:18:04;;;;;;;13.55;3.55;;;15.20;64.70;;;;;;5116572;28;20444;-73
2023/11/01 09:20:30;;;;;;;10.18;2.90;;;15.30;64.50;;;;;;5114500;28;20385;-74
2023/11/01 09:22:57;;;;;;;8.90;2.40;;;15.40;61.60;;;;;;5114984;28;20388;-73
2023/11/01 09:25:24;;;;;;;8.57;2.50;;;15.40;58.90;;;;;;5114310;28;20396;-72
2023/11/01 09:27:50;;;;;;;8.50;2.60;;;15.50;57.50;;;;;;5114387;28;20392;-73
2023/11/01 09:30:15;;;;;;;12.60;2.70;;;15.50;57.80;;;;;;5114392;28;20739;-74
2023/11/01 09:32:41;;;;;;;6.20;2.42;;;15.50;56.20;;;;;;5096211;28;20389;-73
2023/11/01 09:35:08;;;;;;;10.80;2.80;;;15.50;55.80;;;;;;5082155;28;20404;-73
2023/11/01 09:37:36;;;;;;;9.88;2.30;;;15.40;57.10;;;;;;5093351;28;20722;-73
2023/11/01 09:40:02;;;;;;;9.20;2.60;;;15.40;56.40;;;;;;5095508;22;20437;-73
2023/11/01 09:42:28;;;;;;;8.83;2.80;;;15.50;55.70;;;;;;5091595;28;20922;-74
2023/11/01 09:44:58;;;;;;;9.40;2.60;;;15.50;56.30;;;;;;5092443;28;20394;-72
2023/11/01 09:47:27;;;;;;;10.95;2.10;;;15.50;56.90;;;;;;5091952;28;20443;-71
2023/11/01 09:49:56;;;;;;;6.15;1.90;;;15.50;55.90;;;;;;5069843;28;20396;-71
2023/11/01 09:52:26;;;;;;;8.23;2.40;;;15.50;54.60;;;;;;5091730;28;20443;-74
2023/11/01 09:54:52;;;;;;;7.95;2.30;;;15.50;54.70;;;;;;5081481;28;20457;-72
2023/11/01 09:57:22;;;;;;;15.07;2.60;;;15.40;55.50;;;;;;5053255;28;20473;-69
2023/11/01 09:59:49;;;;;;;8.13;2.60;;;15.40;55.20;;;;;;5071394;28;20453;-71
2023/11/01 10:02:14;;;;;;;8.98;2.90;;;15.40;56.80;;;;;;5090467;28;20445;-75
2023/11/01 10:04:40;;;;;;;7.97;2.15;;;15.40;54.90;;;;;;5075623;28;21020;-72
2023/11/01 10:07:06;;;;;;;8.50;2.10;;;15.50;54.60;;;;;;5074387;28;20393;-71
2023/11/01 10:09:33;;;;;;;8.53;2.70;;;15.70;53.80;;;;;;5089739;28;20424;-70
2023/11/01 10:11:58;;;;;;;11.15;2.55;;;15.90;51.20;;;;;;5073166;28;20398;-70
2023/11/01 10:14:29;;;;;;;8.38;2.85;;;16.00;51.60;;;;;;5078218;28;20399;-69
2023/11/01 10:16:56;;;;;;;8.50;2.95;;;16.30;49.80;;;;;;5086813;28;20458;-73
2023/11/01 10:19:23;;;;;;;7.80;2.30;;;16.50;48.70;;;;;;5091059;28;20944;-72
2023/11/01 10:21:49;;;;;;;6.00;2.25;;;16.60;45.00;;;;;;5088217;28;20398;-71
2023/11/01 10:24:14;;;;;;;10.10;2.58;;;16.50;46.10;;;;;;5087876;28;20451;-73
2023/11/01 10:26:40;;;;;;;11.00;2.30;;;16.60;45.70;;;;;;5079412;28;20456;-71
2023/11/01 10:29:05;;;;;;;9.00;2.20;;;16.50;45.50;;;;;;5071139;28;20380;-71
2023/11/01 10:31:31;;;;;;;10.38;2.40;;;16.40;45.40;;;;;;5070593;28;20479;-71
2023/11/01 10:33:57;;;;;;;5.80;2.27;;;16.20;46.20;;;;;;5071016;28;20372;-71
2023/11/01 10:36:23;;;;;;;5.13;2.30;;;16.20;46.50;;;;;;5088490;28;20390;-71
2023/11/01 10:38:50;;;;;;;8.17;2.50;;;16.10;47.50;;;;;;5085545;28;20469;-71
2023/11/01 10:41:18;;;;;;;7.75;2.35;;;16.10;47.30;;;;;;5079383;28;20482;-72
2023/11/01 10:43:43;;;;;;;8.25;2.40;;;16.20;45.70;;;;;;5071261;28;20422;-70
2023/11/01 10:46:09;;;;;;;8.65;2.30;;;16.40;45.00;;;;;;5071197;28;20902;-72
2023/11/01 10:48:36;;;;;;;9.07;2.53;;;16.50;43.90;;;;;;5071931;28;20437;-74
2023/11/01 10:51:04;;;;;;;9.73;2.20;;;16.60;43.80;;;;;;5064456;28;20403;-71
2023/11/01 10:53:32;;;;;;;6.82;2.05;;;16.80;43.10;;;;;;5070971;28;20382;-74
2023/11/01 10:55:58;;;;;;;10.40;2.70;;;16.90;41.70;;;;;;5070342;28;20493;-73
2023/11/01 10:58:27;;;;;;;5.65;2.05;;;17.10;41.00;;;;;;5072296;28;20878;-71
2023/11/01 11:01:02;;;;;;;10.48;2.40;;;17.10;40.90;;;;;;5078860;28;20424;-71
2023/11/01 11:03:51;;;;;;;6.32;2.00;;;17.30;38.80;;;;;;5073564;28;20398;-73
2023/11/01 11:06:21;;;;;;;14.65;2.20;;;17.40;39.40;;;;;;5071109;28;20410;-71
2023/11/01 11:09:23;;;;;;;5.85;1.98;;;17.50;39.00;;;;;;5075132;28;20478;-72
2023/11/01 11:12:18;;;;;;;9.02;2.67;;;17.40;38.10;;;;;;5074983;28;20822;-71
2023/11/01 11:14:47;;;;;;;10.30;2.10;;;17.10;38.40;;;;;;5033960;28;20479;-73
2023/11/01 11:17:14;;;;;;;6.10;2.00;;;16.80;39.80;;;;;;5051256;28;20459;-72
2023/11/01 11:20:06;;;;;;;8.75;2.13;;;16.70;40.10;;;;;;5069797;28;20392;-71
2023/11/01 11:23:00;;;;;;;9.02;2.40;;;16.50;40.50;;;;;;5072499;28;20380;-72
2023/11/01 11:25:49;;;;;;;4.78;2.15;;;16.50;40.70;;;;;;5074027;28;20406;-73
2023/11/01 11:28:18;;;;;;;6.03;2.10;;;16.50;40.80;;;;;;5072906;28;20436;-72
2023/11/01 11:31:05;;;;;;;8.65;2.20;;;16.60;40.40;;;;;;5072857;28;20396;-70
2023/11/01 11:33:32;;;;;;;10.57;2.33;;;16.80;39.90;;;;;;5061238;28;20376;-71
2023/11/01 11:36:28;;;;;;;11.38;2.80;;;16.90;38.50;;;;;;5070713;28;20386;-71
2023/11/01 11:38:55;;;;;;;18.95;2.60;;;17.00;39.10;;;;;;5038081;28;20393;-71
2023/11/01 11:41:25;;;;;;;7.68;2.10;;;16.90;39.70;;;;;;5032625;28;20409;-70
2023/11/01 11:44:09;;;;;;;6.25;1.60;;;17.00;38.80;;;;;;5049805;28;20465;-71
2023/11/01 11:46:49;;;;;;;9.32;2.42;;;17.00;38.60;;;;;;5050193;28;20393;-73
2023/11/01 11:49:37;;;;;;;12.52;2.50;;;17.10;37.70;;;;;;5041857;28;20392;-73
2023/11/01 11:52:07;;;;;;;12.15;2.20;;;17.10;38.30;;;;;;5070871;28;20749;-72
2023/11/01 11:54:34;;;;;;;9.57;2.53;;;17.10;38.80;;;;;;5070672;28;20791;-72
2023/11/01 11:57:16;;;;;;;8.65;2.10;;;17.30;37.40;;;;;;5070157;28;20391;-71
2023/11/01 11:59:42;;;;;;;10.45;2.30;;;17.40;36.80;;;;;;5068619;28;20391;-71
2023/11/01 12:02:13;;;;;;;10.50;2.10;;;17.60;37.00;;;;;;5069995;28;20786;-71
2023/11/01 12:04:39;;;;;;;10.70;2.40;;;17.60;36.10;;;;;;5076450;28;20408;-71
2023/11/01 12:07:06;;;;;;;12.07;2.28;;;17.60;36.00;;;;;;5069557;28;20379;-72
2023/11/01 12:09:32;;;;;;;8.83;3.10;;;17.60;35.70;;;;;;5069877;28;20411;-73
2023/11/01 12:11:59;;;;;;;10.27;2.23;;;17.50;35.80;;;;;;5067875;28;20472;-72
2023/11/01 12:14:26;;;;;;;14.50;2.70;;;17.20;36.70;;;;;;5069968;28;20403;-73
2023/11/01 12:16:54;;;;;;;12.85;2.38;;;17.00;36.60;;;;;;5070134;28;20483;-73
2023/11/01 12:19:20;;;;;;;12.02;2.35;;;16.90;37.10;;;;;;5070336;28;20951;-74
2023/11/01 12:21:52;;;;;;;11.27;3.10;;;16.80;37.90;;;;;;5071224;28;20391;-72
2023/11/01 12:24:20;;;;;;;8.30;2.40;;;16.70;38.50;;;;;;5070088;28;20391;-72
2023/11/01 12:27:11;;;;;;;8.00;2.50;;;16.50;38.00;;;;;;5073717;28;20462;-73
2023/11/01 12:29:56;;;;;;;7.75;2.00;;;16.60;38.40;;;;;;5073746;28;20885;-75
2023/11/01 12:32:22;;;;;;;10.85;2.92;;;16.60;38.30;;;;;;5077571;28;20797;-71
2023/11/01 12:34:47;;;;;;;14.60;2.40;;;16.70;38.20;;;;;;5074418;28;20469;-76
2023/11/01 12:37:24;;;;;;;12.90;2.60;;;16.80;37.50;;;;;;5078642;28;20435;-75
2023/11/01 12:40:00;;;;;;;12.50;3.20;;;16.90;37.50;;;;;;5072963;28;20421;-75
2023/11/01 12:42:30;;;;;;;13.10;2.50;;;17.00;37.30;;;;;;5058771;28;20389;-75
2023/11/01 12:44:56;;;;;;;11.05;2.80;;;16.90;37.20;;;;;;5068504;28;20723;-76